Time;durP1;ratioP1;P1;durP2;ratioP2;P2;SDS_P1;SDS_P2;PMS_P1;PMS_P2;Temp;Humidity;BMP_temperature;BMP_pressure;BME280_temperature;BME280_humidity;BME280_pressure;Samples;Min_cycle;Max_cycle;Signal;HPM_P1;HPM_P2
2021/05/14 00:02:08;;;;;;;16.00;9.82;;;9.90;99.90;;;;;;4971848;28;20519;-49
2021/05/14 00:04:34;;;;;;;17.77;11.23;;;9.80;99.90;;;;;;4971824;28;20423;-49
2021/05/14 00:07:00;;;;;;;19.38;13.60;;;9.80;99.90;;;;;;4972358;28;20392;-49
2021/05/14 00:09:25;;;;;;;22.83;14.77;;;9.70;99.90;;;;;;4972047;28;20486;-49
2021/05/14 00:11:51;;;;;;;22.17;14.65;;;9.70;99.90;;;;;;4970988;28;20395;-49
2021/05/14 00:14:17;;;;;;;18.77;12.73;;;9.80;99.90;;;;;;4971750;28;20396;-49
2021/05/14 00:16:42;;;;;;;18.00;11.50;;;9.70;99.90;;;;;;4972258;28;20411;-49
2021/05/14 00:19:08;;;;;;;15.23;8.83;;;9.80;99.90;;;;;;4971179;28;20392;-51
2021/05/14 00:21:34;;;;;;;13.55;8.00;;;9.80;99.90;;;;;;4972202;28;20392;-50
2021/05/14 00:24:01;;;;;;;10.35;6.75;;;9.90;99.90;;;;;;4972167;28;20451;-49
2021/05/14 00:26:28;;;;;;;12.48;5.95;;;10.00;99.90;;;;;;4954198;28;20954;-49
2021/05/14 00:28:54;;;;;;;9.23;5.50;;;10.00;99.90;;;;;;4971424;28;20788;-49
2021/05/14 00:31:19;;;;;;;8.80;4.75;;;10.00;99.90;;;;;;4953980;28;20415;-49
2021/05/14 00:33:45;;;;;;;10.37;4.40;;;9.90;99.90;;;;;;4971871;28;20423;-49
2021/05/14 00:36:11;;;;;;;8.27;3.55;;;10.00;99.90;;;;;;4970772;28;20435;-49
2021/05/14 00:38:37;;;;;;;7.80;3.10;;;10.00;99.90;;;;;;4971868;28;20410;-50
2021/05/14 00:41:04;;;;;;;8.33;3.17;;;10.00;99.90;;;;;;4971544;28;20384;-57
2021/05/14 00:43:30;;;;;;;7.25;3.30;;;10.00;99.90;;;;;;4971490;28;20380;-49
2021/05/14 00:45:56;;;;;;;9.77;3.00;;;10.00;99.90;;;;;;4971458;28;20424;-49
2021/05/14 00:48:22;;;;;;;7.85;2.70;;;9.90;99.90;;;;;;4970994;28;20412;-49
2021/05/14 00:50:48;;;;;;;6.30;2.85;;;10.00;99.90;;;;;;4971399;28;20417;-49
2021/05/14 00:53:13;;;;;;;5.97;2.70;;;10.00;99.90;;;;;;4971000;28;20883;-50
2021/05/14 00:55:39;;;;;;;6.00;2.00;;;10.00;99.90;;;;;;4971609;28;20447;-50
2021/05/14 00:58:05;;;;;;;5.00;1.87;;;10.00;99.90;;;;;;4970969;28;20721;-57
2021/05/14 01:00:31;;;;;;;5.80;1.70;;;9.90;99.90;;;;;;4971151;28;20404;-49
2021/05/14 01:02:56;;;;;;;4.00;1.60;;;9.90;99.90;;;;;;4971287;28;20396;-49
2021/05/14 01:05:23;;;;;;;5.60;1.70;;;9.80;99.90;;;;;;4970618;28;20416;-49
2021/05/14 01:07:54;;;;;;;3.88;1.30;;;9.80;99.90;;;;;;4971398;28;20527;-49
2021/05/14 01:10:21;;;;;;;5.22;1.38;;;9.80;99.90;;;;;;4969390;28;20417;-49
2021/05/14 01:12:47;;;;;;;4.80;1.60;;;9.80;99.90;;;;;;4971484;28;20462;-49
2021/05/14 01:15:14;;;;;;;4.10;1.50;;;9.80;99.90;;;;;;4970405;28;20869;-50
2021/05/14 01:17:39;;;;;;;4.22;1.30;;;9.70;99.90;;;;;;4971431;28;20399;-54
2021/05/14 01:20:06;;;;;;;3.95;1.40;;;9.70;99.90;;;;;;4970530;28;20459;-55
2021/05/14 01:22:32;;;;;;;3.95;1.30;;;9.70;99.90;;;;;;4971167;28;20399;-49
2021/05/14 01:24:58;;;;;;;4.00;1.33;;;9.70;99.90;;;;;;4970973;28;20412;-48
2021/05/14 01:27:23;;;;;;;4.50;1.60;;;9.70;99.90;;;;;;4970400;28;20380;-51
2021/05/14 01:29:49;;;;;;;3.70;1.23;;;9.70;99.90;;;;;;4971269;28;20423;-48
2021/05/14 01:32:16;;;;;;;4.83;1.50;;;9.50;99.90;;;;;;4976115;28;20445;-49
2021/05/14 01:34:42;;;;;;;3.90;1.40;;;9.40;99.90;;;;;;4977580;28;20530;-48
2021/05/14 01:37:08;;;;;;;4.93;1.42;;;9.40;99.90;;;;;;4976263;28;20467;-49
2021/05/14 01:39:34;;;;;;;4.35;1.40;;;9.30;99.90;;;;;;4977547;28;20395;-49
2021/05/14 01:42:02;;;;;;;4.80;1.60;;;9.40;99.90;;;;;;4977336;28;20384;-48
2021/05/14 01:44:28;;;;;;;4.35;1.48;;;9.30;99.90;;;;;;4976815;28;20383;-49
2021/05/14 01:46:54;;;;;;;4.80;1.30;;;9.40;99.90;;;;;;4977527;28;20384;-48
2021/05/14 01:49:20;;;;;;;3.90;1.35;;;9.30;99.90;;;;;;4976591;28;20415;-49
2021/05/14 01:51:47;;;;;;;3.90;1.80;;;9.30;99.90;;;;;;4976981;28;20396;-49
2021/05/14 01:54:12;;;;;;;4.82;1.40;;;9.30;99.90;;;;;;4976624;28;20388;-48
2021/05/14 01:56:38;;;;;;;4.10;1.50;;;9.30;99.90;;;;;;4977445;28;20390;-51
2021/05/14 01:59:04;;;;;;;3.60;1.40;;;9.40;99.90;;;;;;4977230;28;20404;-57
2021/05/14 02:01:30;;;;;;;3.50;1.20;;;9.30;99.90;;;;;;4976699;28;20395;-49
2021/05/14 02:03:56;;;;;;;3.40;1.05;;;9.40;99.90;;;;;;4977188;28;20760;-49
2021/05/14 02:06:22;;;;;;;4.30;1.23;;;9.40;99.90;;;;;;4976350;28;20529;-49
2021/05/14 02:08:49;;;;;;;3.70;1.40;;;9.20;99.90;;;;;;4977394;28;20833;-49
2021/05/14 02:11:14;;;;;;;4.93;1.30;;;9.20;99.90;;;;;;4976019;28;20412;-50
2021/05/14 02:13:41;;;;;;;3.30;1.10;;;9.30;99.90;;;;;;4977090;28;20601;-49
2021/05/14 02:16:09;;;;;;;3.88;1.52;;;9.30;99.90;;;;;;4976811;28;20388;-52
2021/05/14 02:18:36;;;;;;;4.97;1.10;;;9.30;99.90;;;;;;4977086;28;20549;-49
2021/05/14 02:21:02;;;;;;;3.88;1.45;;;9.20;99.90;;;;;;4959226;28;20417;-49
2021/05/14 02:23:27;;;;;;;3.57;1.50;;;9.10;99.90;;;;;;4976502;28;20411;-49
2021/05/14 02:25:54;;;;;;;3.90;1.30;;;9.10;99.90;;;;;;4976697;28;20479;-49
2021/05/14 02:28:20;;;;;;;4.47;1.60;;;9.00;99.90;;;;;;4975799;28;20427;-49
2021/05/14 02:30:46;;;;;;;4.30;1.40;;;9.00;99.90;;;;;;4976913;28;20394;-49
2021/05/14 02:33:12;;;;;;;4.27;1.40;;;8.90;99.90;;;;;;4976343;28;20392;-50
2021/05/14 02:35:37;;;;;;;4.70;1.40;;;8.90;99.90;;;;;;4977387;28;20479;-49
2021/05/14 02:38:04;;;;;;;4.60;1.40;;;8.90;99.90;;;;;;4975960;28;20439;-57
2021/05/14 02:40:30;;;;;;;7.63;1.80;;;8.80;99.90;;;;;;4976215;28;20384;-49
2021/05/14 02:42:56;;;;;;;6.53;2.03;;;8.80;99.90;;;;;;4973861;28;20392;-54
2021/05/14 02:45:22;;;;;;;3.78;1.23;;;8.70;99.90;;;;;;4973116;28;21221;-50
2021/05/14 02:47:48;;;;;;;4.22;1.50;;;8.70;99.90;;;;;;4973520;28;20384;-50
2021/05/14 02:50:14;;;;;;;3.70;1.40;;;8.60;99.90;;;;;;4973329;28;20393;-50
2021/05/14 02:52:40;;;;;;;6.63;1.70;;;8.60;99.90;;;;;;4973718;28;20396;-50
2021/05/14 02:55:07;;;;;;;4.93;1.80;;;8.70;99.90;;;;;;4973136;28;20420;-57
2021/05/14 02:57:33;;;;;;;5.80;1.63;;;8.70;99.90;;;;;;4973211;28;20415;-50
2021/05/14 02:59:59;;;;;;;6.25;1.75;;;8.80;99.90;;;;;;4973742;28;20491;-50
2021/05/14 03:02:24;;;;;;;3.73;1.53;;;8.80;99.90;;;;;;4972631;28;20463;-50
2021/05/14 03:04:50;;;;;;;7.60;1.80;;;8.80;99.90;;;;;;4973721;28;20403;-50
2021/05/14 03:07:15;;;;;;;5.10;1.70;;;8.90;99.90;;;;;;4972518;28;20392;-51
2021/05/14 03:09:41;;;;;;;5.65;1.58;;;8.80;99.90;;;;;;4973341;28;20438;-50
2021/05/14 03:12:07;;;;;;;4.30;1.40;;;8.90;99.90;;;;;;4955370;28;20903;-57
2021/05/14 03:14:33;;;;;;;3.70;1.50;;;9.00;99.90;;;;;;4973372;28;20474;-50
2021/05/14 03:16:59;;;;;;;4.70;1.60;;;9.00;99.90;;;;;;4973345;28;20479;-50
2021/05/14 03:19:25;;;;;;;3.95;1.60;;;9.00;99.90;;;;;;4972202;28;20548;-49
2021/05/14 03:21:51;;;;;;;4.35;1.50;;;8.90;99.90;;;;;;4973144;28;20792;-50
2021/05/14 03:24:16;;;;;;;5.40;2.00;;;8.80;99.90;;;;;;4972115;28;20752;-50
2021/05/14 03:26:44;;;;;;;3.90;1.52;;;8.90;99.90;;;;;;4971701;28;20875;-50
2021/05/14 03:29:09;;;;;;;4.30;1.60;;;8.80;99.90;;;;;;4966904;28;20953;-50
2021/05/14 03:31:35;;;;;;;3.70;1.33;;;8.70;99.90;;;;;;4973018;28;20459;-50
2021/05/14 03:34:01;;;;;;;4.68;1.90;;;8.80;99.90;;;;;;4973046;28;20399;-50
2021/05/14 03:36:26;;;;;;;4.90;1.63;;;8.80;99.90;;;;;;4972237;28;20380;-50
2021/05/14 03:38:52;;;;;;;5.70;1.80;;;8.70;99.90;;;;;;4972748;28;20384;-50
2021/05/14 03:41:31;;;;;;;5.40;1.50;;;8.70;99.90;;;;;;4972127;28;20399;-51
2021/05/14 03:43:58;;;;;;;4.60;1.63;;;8.70;99.90;;;;;;4972672;28;20388;-50
2021/05/14 03:46:27;;;;;;;4.28;1.70;;;8.70;99.90;;;;;;4972121;28;20882;-50
2021/05/14 03:48:53;;;;;;;5.20;2.10;;;8.70;99.90;;;;;;4972543;28;20471;-50
2021/05/14 03:51:18;;;;;;;4.90;1.70;;;8.80;99.90;;;;;;4971790;28;20563;-50
2021/05/14 03:53:44;;;;;;;4.32;1.70;;;8.90;99.90;;;;;;4972283;28;20471;-50
2021/05/14 03:56:10;;;;;;;5.30;1.90;;;8.90;99.90;;;;;;4971669;28;20377;-50
2021/05/14 03:58:36;;;;;;;4.10;1.70;;;9.20;99.90;;;;;;4955110;28;20408;-52
2021/05/14 04:01:02;;;;;;;4.85;1.70;;;8.00;99.90;;;;;;4972610;28;20737;-50
2021/05/14 04:03:27;;;;;;;4.90;1.73;;;9.10;99.90;;;;;;4971550;28;20451;-50
2021/05/14 04:05:53;;;;;;;5.20;1.80;;;9.10;99.90;;;;;;4972572;28;20427;-50
2021/05/14 04:08:19;;;;;;;4.00;1.90;;;9.10;99.90;;;;;;4971340;28;20395;-50
2021/05/14 04:11:16;;;;;;;5.10;1.70;;;9.00;99.90;;;;;;4972332;28;20462;-50
2021/05/14 04:16:17;;;;;;;4.38;1.70;;;9.00;99.90;;;;;;4971207;28;20852;-50
2021/05/14 04:18:43;;;;;;;4.72;2.00;;;9.00;99.90;;;;;;4971836;28;20856;-51
2021/05/14 04:21:09;;;;;;;5.20;1.80;;;9.00;99.90;;;;;;4971482;28;20475;-55
2021/05/14 04:23:35;;;;;;;4.23;1.80;;;8.90;99.90;;;;;;4971992;28;20381;-50
2021/05/14 04:26:01;;;;;;;5.50;1.85;;;8.70;99.90;;;;;;4972098;28;20752;-50
2021/05/14 04:28:27;;;;;;;5.50;1.90;;;8.80;99.90;;;;;;4971065;28;20412;-51
2021/05/14 04:30:53;;;;;;;5.13;1.97;;;8.80;99.90;;;;;;4972194;28;20384;-50
2021/05/14 04:33:18;;;;;;;4.65;1.92;;;8.80;99.90;;;;;;4971294;28;20420;-50
2021/05/14 04:35:44;;;;;;;7.33;2.90;;;8.90;99.90;;;;;;4972059;28;20395;-49
2021/05/14 04:38:09;;;;;;;5.20;2.00;;;8.90;99.90;;;;;;4970958;28;20431;-50
2021/05/14 04:40:35;;;;;;;5.03;2.10;;;9.00;99.90;;;;;;4971529;28;20421;-49
2021/05/14 04:43:02;;;;;;;5.30;1.90;;;9.00;99.90;;;;;;4971544;28;20863;-49
2021/05/14 04:45:28;;;;;;;5.88;2.30;;;8.80;99.90;;;;;;4970870;28;20508;-49
2021/05/14 04:47:53;;;;;;;4.65;1.80;;;8.90;99.90;;;;;;4971868;28;20950;-49
2021/05/14 04:50:19;;;;;;;5.30;2.50;;;9.00;99.90;;;;;;4970553;28;20380;-49
2021/05/14 04:52:46;;;;;;;5.00;1.90;;;9.30;99.90;;;;;;4971497;28;20396;-49
2021/05/14 04:55:12;;;;;;;4.50;1.80;;;9.60;99.90;;;;;;4970661;28;20488;-49
2021/05/14 04:57:38;;;;;;;5.60;1.80;;;10.20;99.90;;;;;;4971396;28;20396;-49
2021/05/14 05:00:05;;;;;;;5.80;1.80;;;11.50;99.90;;;;;;4954392;28;20759;-49
2021/05/14 05:02:32;;;;;;;4.07;1.65;;;11.90;99.90;;;;;;4970571;28;20768;-50
2021/05/14 05:04:58;;;;;;;4.63;1.70;;;14.70;99.90;;;;;;4970952;28;20420;-49
2021/05/14 05:07:28;;;;;;;4.32;1.70;;;16.50;99.90;;;;;;4970288;28;20396;-50
2021/05/14 05:09:54;;;;;;;4.97;1.60;;;17.80;99.90;;;;;;4971559;28;20864;-50
2021/05/14 05:12:20;;;;;;;4.40;1.40;;;18.70;99.90;;;;;;4968882;28;20393;-50
2021/05/14 05:14:46;;;;;;;5.38;1.70;;;19.70;98.70;;;;;;4971253;28;20392;-50
2021/05/14 05:17:11;;;;;;;5.18;1.67;;;19.60;95.90;;;;;;4970583;28;20740;-50
2021/05/14 05:19:37;;;;;;;4.70;1.60;;;19.70;96.20;;;;;;4964473;28;20405;-50
2021/05/14 05:22:02;;;;;;;4.90;1.70;;;19.80;94.30;;;;;;4960816;28;20531;-52
2021/05/14 05:24:28;;;;;;;4.75;1.50;;;19.10;96.40;;;;;;4959183;28;20389;-50
2021/05/14 05:26:54;;;;;;;5.57;1.50;;;19.60;95.30;;;;;;4962331;28;20915;-50
2021/05/14 05:29:19;;;;;;;8.63;1.80;;;19.60;93.50;;;;;;4958340;28;20413;-50
2021/05/14 05:31:45;;;;;;;4.70;1.60;;;19.20;94.80;;;;;;4959418;28;20472;-49
2021/05/14 05:34:11;;;;;;;4.27;1.63;;;18.80;95.90;;;;;;4960447;28;20452;-50
2021/05/14 05:36:36;;;;;;;4.50;1.40;;;18.60;96.10;;;;;;4960329;28;21738;-51
2021/05/14 05:39:03;;;;;;;4.40;1.80;;;18.60;97.20;;;;;;4961710;28;20479;-51
2021/05/14 05:41:29;;;;;;;6.03;1.50;;;19.30;95.20;;;;;;4960156;28;20453;-51
2021/05/14 05:43:54;;;;;;;4.88;1.60;;;20.30;93.80;;;;;;4960356;28;20388;-49
2021/05/14 05:46:20;;;;;;;5.88;1.60;;;20.90;93.00;;;;;;4960884;28;20626;-49
2021/05/14 05:48:46;;;;;;;5.93;1.10;;;21.80;90.20;;;;;;4960414;28;20409;-49
2021/05/14 05:51:13;;;;;;;4.40;1.60;;;22.80;87.00;;;;;;4960469;28;21053;-54
2021/05/14 05:53:39;;;;;;;6.65;2.38;;;23.30;83.10;;;;;;4956527;28;20409;-50
2021/05/14 05:56:05;;;;;;;4.63;1.30;;;23.40;78.70;;;;;;4957170;28;20789;-49
2021/05/14 05:58:32;;;;;;;6.80;1.50;;;22.30;81.00;;;;;;4958063;28;20412;-49
2021/05/14 06:00:58;;;;;;;4.20;1.20;;;20.90;85.20;;;;;;4959605;28;20425;-49
2021/05/14 06:03:24;;;;;;;4.35;1.20;;;21.00;88.00;;;;;;4960392;28;20433;-49
2021/05/14 06:05:50;;;;;;;5.05;1.48;;;21.80;86.20;;;;;;4959607;28;20539;-49
2021/05/14 06:08:16;;;;;;;4.40;1.40;;;21.00;85.70;;;;;;4959118;28;20396;-52
2021/05/14 06:10:44;;;;;;;4.38;1.30;;;21.10;88.80;;;;;;4960699;28;20914;-56
2021/05/14 06:13:10;;;;;;;7.00;1.70;;;21.30;85.60;;;;;;4961177;28;20493;-50
2021/05/14 06:15:35;;;;;;;5.57;1.60;;;20.70;88.80;;;;;;4957133;28;20394;-51
2021/05/14 06:18:01;;;;;;;4.40;1.40;;;20.90;89.00;;;;;;4952319;28;20393;-50
2021/05/14 06:20:29;;;;;;;5.00;1.20;;;20.80;88.60;;;;;;4953890;29;20925;-50
2021/05/14 06:22:55;;;;;;;5.00;1.20;;;20.50;88.20;;;;;;4954228;29;20553;-50
2021/05/14 06:25:21;;;;;;;5.10;1.50;;;20.10;90.60;;;;;;4953835;29;20977;-50
2021/05/14 06:27:47;;;;;;;4.80;1.30;;;20.30;90.70;;;;;;4965097;28;20895;-50
2021/05/14 06:30:13;;;;;;;6.45;1.30;;;20.60;90.80;;;;;;4973416;28;20476;-51
2021/05/14 06:32:39;;;;;;;4.00;1.00;;;22.00;89.40;;;;;;4971831;28;20491;-50
2021/05/14 06:35:06;;;;;;;5.28;0.90;;;22.30;82.90;;;;;;4960290;28;21017;-50
2021/05/14 06:37:36;;;;;;;4.03;0.80;;;21.50;83.40;;;;;;4964761;28;20396;-53
2021/05/14 06:40:04;;;;;;;3.95;1.00;;;20.40;87.90;;;;;;4962502;28;20438;-50
2021/05/14 06:42:29;;;;;;;4.80;1.10;;;19.20;90.40;;;;;;4965653;28;20679;-50
2021/05/14 06:44:56;;;;;;;5.70;1.00;;;17.90;93.40;;;;;;4963261;28;20897;-52
2021/05/14 06:47:21;;;;;;;3.67;1.05;;;17.00;96.40;;;;;;4955629;28;20418;-50
2021/05/14 06:49:47;;;;;;;4.40;0.95;;;16.40;99.90;;;;;;4966748;28;20437;-54
2021/05/14 06:52:13;;;;;;;3.77;0.90;;;16.30;99.90;;;;;;4960557;28;20908;-54
2021/05/14 06:54:38;;;;;;;4.67;1.00;;;16.50;99.90;;;;;;4965876;28;20396;-57
2021/05/14 06:57:04;;;;;;;4.78;1.13;;;17.00;99.90;;;;;;4955666;28;20402;-55
2021/05/14 06:59:30;;;;;;;5.40;2.60;;;17.60;99.90;;;;;;4961463;28;21012;-54
2021/05/14 07:01:56;;;;;;;3.95;1.70;;;18.80;97.20;;;;;;4966811;28;21099;-54
2021/05/14 07:04:21;;;;;;;4.40;1.17;;;20.90;93.50;;;;;;4960595;28;20399;-56
2021/05/14 07:06:47;;;;;;;3.63;0.80;;;22.20;90.30;;;;;;4962948;28;20481;-54
2021/05/14 07:09:13;;;;;;;4.17;0.73;;;22.60;87.20;;;;;;4969562;28;20896;-55
2021/05/14 07:11:39;;;;;;;3.50;0.40;;;23.50;80.90;;;;;;4972604;28;20395;-55
2021/05/14 07:14:04;;;;;;;3.90;0.70;;;24.20;75.90;;;;;;4973127;28;20388;-55
2021/05/14 07:16:30;;;;;;;4.70;0.60;;;23.40;73.20;;;;;;4968651;28;20415;-55
2021/05/14 07:18:56;;;;;;;3.80;0.70;;;23.20;75.10;;;;;;4966714;28;20451;-55
2021/05/14 07:21:22;;;;;;;4.20;0.80;;;23.00;75.50;;;;;;4960169;28;20390;-54
2021/05/14 07:23:48;;;;;;;4.30;0.83;;;22.20;77.70;;;;;;4955391;28;20388;-55
2021/05/14 07:26:13;;;;;;;3.70;0.90;;;22.20;80.90;;;;;;4967356;28;20424;-57
2021/05/14 07:28:39;;;;;;;3.80;0.90;;;23.20;78.90;;;;;;4954105;28;20416;-54
2021/05/14 07:31:05;;;;;;;3.80;0.70;;;24.20;71.90;;;;;;4966245;28;20394;-55
2021/05/14 07:33:30;;;;;;;3.90;0.60;;;23.80;72.70;;;;;;4961311;28;20896;-56
2021/05/14 07:35:56;;;;;;;4.15;0.60;;;23.80;70.70;;;;;;4959583;28;20639;-55
2021/05/14 07:38:22;;;;;;;3.70;0.60;;;23.10;73.80;;;;;;4968326;28;20384;-58
2021/05/14 07:40:47;;;;;;;3.80;0.60;;;23.60;72.50;;;;;;4956561;28;20388;-62
2021/05/14 07:43:13;;;;;;;3.90;0.60;;;23.60;70.70;;;;;;4964349;28;20892;-58
2021/05/14 07:45:45;;;;;;;4.00;0.60;;;23.40;71.70;;;;;;4946115;28;20421;-55
2021/05/14 07:48:20;;;;;;;3.72;0.70;;;23.20;71.00;;;;;;4956822;28;20944;-55
2021/05/14 07:50:47;;;;;;;3.58;0.70;;;22.90;71.40;;;;;;4956498;28;20511;-54
2021/05/14 07:53:12;;;;;;;3.30;0.60;;;22.70;74.20;;;;;;4964606;28;20877;-68
2021/05/14 07:55:38;;;;;;;3.72;0.63;;;24.40;69.10;;;;;;4962002;28;20432;-55
2021/05/14 07:58:04;;;;;;;4.30;0.60;;;22.90;69.00;;;;;;4958454;28;20432;-55
2021/05/14 08:00:29;;;;;;;3.90;0.60;;;23.10;71.80;;;;;;4968022;28;20392;-55
2021/05/14 08:02:55;;;;;;;5.60;1.20;;;24.30;70.60;;;;;;4952620;29;20404;-56
2021/05/14 08:05:22;;;;;;;3.50;0.30;;;24.60;68.00;;;;;;4960177;28;20951;-58
2021/05/14 08:08:13;;;;;;;4.07;0.80;;;25.10;63.40;;;;;;4959762;28;20806;-56
2021/05/14 08:10:38;;;;;;;3.70;0.60;;;23.10;66.00;;;;;;4968310;28;20478;-59
2021/05/14 08:13:04;;;;;;;5.03;3.10;;;21.80;69.20;;;;;;4958514;28;20484;-56
2021/05/14 08:15:31;;;;;;;3.83;0.85;;;20.60;74.20;;;;;;4961864;28;20397;-55
2021/05/14 08:17:57;;;;;;;4.75;0.85;;;20.30;76.70;;;;;;4965436;28;20602;-55
2021/05/14 08:20:24;;;;;;;5.32;0.90;;;20.20;77.20;;;;;;4937443;28;20515;-55
2021/05/14 08:22:50;;;;;;;4.10;0.70;;;20.60;77.90;;;;;;4967481;28;20390;-55
2021/05/14 08:25:16;;;;;;;4.23;0.80;;;20.70;76.70;;;;;;4941206;28;20435;-55
2021/05/14 08:27:42;;;;;;;4.10;0.90;;;20.10;77.50;;;;;;4959886;28;20401;-56
2021/05/14 08:30:10;;;;;;;3.90;1.00;;;19.50;82.10;;;;;;4966773;28;20396;-54
2021/05/14 08:32:36;;;;;;;3.90;0.60;;;19.30;86.00;;;;;;4954785;28;20386;-55
2021/05/14 08:35:02;;;;;;;4.00;0.60;;;20.40;82.30;;;;;;4965311;28;20400;-55
2021/05/14 08:37:28;;;;;;;4.20;0.70;;;20.70;77.80;;;;;;4960187;28;20412;-55
2021/05/14 08:39:53;;;;;;;3.90;0.60;;;20.80;78.80;;;;;;4958318;28;20477;-55
2021/05/14 08:42:19;;;;;;;3.60;0.80;;;21.40;77.60;;;;;;4966528;28;20727;-58
2021/05/14 08:44:45;;;;;;;3.90;0.70;;;20.80;76.30;;;;;;4955173;28;20923;-54
2021/05/14 08:47:12;;;;;;;3.80;0.60;;;19.50;77.60;;;;;;4964125;28;20738;-66
2021/05/14 08:49:38;;;;;;;4.30;0.63;;;18.70;80.80;;;;;;4962024;28;20471;-54
2021/05/14 08:52:05;;;;;;;7.57;1.23;;;17.80;85.80;;;;;;4957451;28;20382;-54
2021/05/14 08:54:31;;;;;;;4.32;0.90;;;17.30;87.20;;;;;;4966284;28;20928;-55
2021/05/14 08:56:56;;;;;;;3.35;0.63;;;17.20;89.70;;;;;;4956029;28;20665;-56
2021/05/14 08:59:22;;;;;;;3.63;0.60;;;17.10;89.80;;;;;;4962394;28;20402;-54
2021/05/14 09:01:51;;;;;;;6.20;0.80;;;17.80;87.30;;;;;;4953133;28;20386;-54
2021/05/14 09:04:18;;;;;;;4.30;0.80;;;18.10;86.80;;;;;;4966548;28;20910;-54
2021/05/14 09:06:45;;;;;;;4.30;0.73;;;17.80;88.40;;;;;;4967207;28;20421;-55
2021/05/14 09:09:12;;;;;;;3.50;0.70;;;17.80;89.10;;;;;;4958432;28;20384;-64
2021/05/14 09:11:41;;;;;;;3.25;0.65;;;17.80;88.70;;;;;;4958407;28;20567;-54
2021/05/14 09:14:38;;;;;;;3.50;0.80;;;17.90;88.50;;;;;;4953231;28;20398;-54
2021/05/14 09:17:25;;;;;;;4.47;0.70;;;18.10;88.30;;;;;;4951543;29;20386;-54
2021/05/14 09:19:50;;;;;;;3.90;0.70;;;20.30;86.30;;;;;;4960230;28;20509;-55
2021/05/14 09:22:24;;;;;;;4.00;0.50;;;22.30;74.00;;;;;;4960618;28;20507;-57
2021/05/14 09:24:58;;;;;;;4.00;1.10;;;23.80;67.20;;;;;;4961287;28;20505;-58
2021/05/14 09:27:34;;;;;;;3.37;0.60;;;25.20;63.20;;;;;;4958415;28;20389;-56
2021/05/14 09:30:01;;;;;;;3.25;0.40;;;27.00;55.40;;;;;;4957097;28;20404;-55
2021/05/14 09:32:38;;;;;;;3.87;0.50;;;25.20;56.60;;;;;;4960631;28;20451;-55
2021/05/14 09:35:05;;;;;;;4.25;0.60;;;22.60;61.50;;;;;;4955136;28;20860;-56
2021/05/14 09:37:31;;;;;;;3.97;0.60;;;20.90;68.00;;;;;;4958153;28;20507;-56
2021/05/14 09:40:20;;;;;;;3.50;0.60;;;19.50;71.80;;;;;;4955358;28;20477;-56
2021/05/14 09:42:49;;;;;;;3.80;0.60;;;19.20;76.60;;;;;;4949396;28;20904;-57
2021/05/14 09:45:25;;;;;;;3.30;0.60;;;19.10;78.20;;;;;;4939363;28;20451;-71
2021/05/14 09:48:02;;;;;;;3.40;0.70;;;19.00;78.30;;;;;;4959613;28;20390;-55
2021/05/14 09:50:35;;;;;;;3.70;0.80;;;18.30;76.80;;;;;;4948684;28;20470;-54
2021/05/14 09:53:10;;;;;;;3.60;0.60;;;17.90;81.70;;;;;;4958071;28;20396;-54
2021/05/14 09:55:38;;;;;;;4.15;0.68;;;18.30;79.70;;;;;;4973317;28;20396;-57
2021/05/14 09:58:18;;;;;;;3.60;0.80;;;18.90;79.10;;;;;;4957217;28;20408;-56
2021/05/14 10:00:45;;;;;;;3.30;0.60;;;19.00;77.40;;;;;;4941609;28;20421;-56
2021/05/14 10:03:14;;;;;;;3.83;0.60;;;19.00;77.80;;;;;;4956999;28;20501;-55
2021/05/14 10:05:41;;;;;;;3.40;0.80;;;19.10;77.30;;;;;;4968323;28;20428;-55
2021/05/14 10:08:07;;;;;;;4.13;0.70;;;18.60;80.20;;;;;;4962967;28;20878;-55
2021/05/14 10:10:35;;;;;;;3.70;0.80;;;17.80;83.50;;;;;;4960610;28;21204;-60
2021/05/14 10:13:01;;;;;;;3.30;0.50;;;18.00;83.30;;;;;;4965738;28;20478;-55
2021/05/14 10:15:27;;;;;;;3.35;0.57;;;18.10;79.60;;;;;;4959245;28;20791;-58
2021/05/14 10:17:53;;;;;;;3.30;0.60;;;18.90;82.40;;;;;;4970477;28;20384;-57
2021/05/14 10:20:24;;;;;;;3.30;0.60;;;19.20;79.10;;;;;;4957662;28;20412;-56
2021/05/14 10:22:52;;;;;;;3.35;0.60;;;19.60;77.10;;;;;;4965267;28;20386;-55
2021/05/14 10:25:36;;;;;;;3.85;0.60;;;19.80;75.80;;;;;;4944008;28;20469;-62
2021/05/14 10:28:07;;;;;;;3.60;0.70;;;19.80;76.50;;;;;;4961559;28;20431;-55
2021/05/14 10:30:33;;;;;;;4.20;0.80;;;20.60;76.40;;;;;;4963783;28;20392;-55
2021/05/14 10:32:59;;;;;;;3.58;0.60;;;21.10;71.70;;;;;;4963276;28;20401;-55
2021/05/14 10:35:30;;;;;;;4.70;1.00;;;21.30;72.80;;;;;;4962301;28;20393;-56
2021/05/14 10:38:04;;;;;;;3.70;0.70;;;21.50;73.50;;;;;;4961996;28;20488;-56
2021/05/14 10:40:37;;;;;;;5.35;0.60;;;20.80;70.10;;;;;;4963489;28;20392;-56
2021/05/14 10:43:05;;;;;;;4.70;0.70;;;20.50;72.20;;;;;;4962115;28;20469;-56
2021/05/14 10:45:37;;;;;;;4.30;0.70;;;20.00;74.20;;;;;;4963275;28;20412;-63
2021/05/14 10:48:16;;;;;;;5.00;1.15;;;19.70;75.60;;;;;;4963516;28;20464;-55
2021/05/14 10:50:43;;;;;;;4.15;0.60;;;19.80;74.60;;;;;;4947334;28;20397;-56
2021/05/14 10:53:35;;;;;;;3.40;0.60;;;19.70;72.90;;;;;;4962131;28;20405;-56
2021/05/14 10:56:09;;;;;;;4.80;0.70;;;19.70;73.60;;;;;;4961657;28;20397;-58
2021/05/14 10:58:40;;;;;;;4.23;0.70;;;18.90;76.70;;;;;;4953170;29;20393;-56
2021/05/14 11:01:07;;;;;;;3.70;0.70;;;18.50;77.90;;;;;;4957979;28;20474;-54
2021/05/14 11:03:34;;;;;;;8.30;1.70;;;18.30;82.10;;;;;;4971653;28;20385;-55
2021/05/14 11:06:19;;;;;;;3.92;0.80;;;18.30;90.70;;;;;;4973293;28;20415;-57
2021/05/14 11:09:07;;;;;;;3.70;0.80;;;18.10;90.20;;;;;;4973244;28;20380;-54
2021/05/14 11:11:33;;;;;;;4.32;1.10;;;17.60;92.00;;;;;;4972280;28;20396;-55
2021/05/14 11:14:19;;;;;;;6.35;1.30;;;17.50;97.30;;;;;;4973034;28;20399;-58
2021/05/14 11:17:09;;;;;;;4.60;0.80;;;17.30;94.20;;;;;;4973362;28;20828;-54
2021/05/14 11:19:47;;;;;;;3.43;0.70;;;17.30;96.30;;;;;;4971976;28;21023;-54
2021/05/14 11:22:15;;;;;;;3.80;0.80;;;17.50;96.70;;;;;;4972857;28;20387;-66
2021/05/14 11:24:50;;;;;;;3.30;0.60;;;17.60;95.80;;;;;;4972442;28;20442;-55
2021/05/14 11:27:32;;;;;;;3.78;0.80;;;17.90;95.30;;;;;;4963741;28;20487;-67
2021/05/14 11:30:00;;;;;;;3.70;0.90;;;18.40;94.10;;;;;;4963585;28;20412;-55
2021/05/14 11:32:38;;;;;;;5.72;0.90;;;18.30;97.50;;;;;;4952561;29;20382;-54
2021/05/14 11:35:10;;;;;;;4.68;1.00;;;18.30;96.40;;;;;;4953513;29;20447;-54
2021/05/14 11:37:51;;;;;;;4.22;0.90;;;18.40;99.90;;;;;;4952509;29;20616;-54
2021/05/14 11:40:26;;;;;;;3.47;0.77;;;18.70;95.20;;;;;;4955312;28;20528;-67
2021/05/14 11:42:54;;;;;;;3.90;1.00;;;18.90;99.90;;;;;;4961731;28;20425;-55
2021/05/14 11:45:31;;;;;;;5.30;0.90;;;18.80;97.40;;;;;;4960296;28;20943;-51
2021/05/14 11:47:59;;;;;;;5.10;1.00;;;18.90;96.10;;;;;;4963413;28;20480;-50
2021/05/14 11:50:33;;;;;;;3.60;0.80;;;18.60;96.30;;;;;;4962241;28;20394;-50
2021/05/14 11:53:01;;;;;;;3.97;0.80;;;18.30;96.40;;;;;;4960674;28;20404;-50
2021/05/14 11:55:28;;;;;;;4.00;0.80;;;18.30;97.30;;;;;;4962011;28;20399;-51
2021/05/14 11:57:56;;;;;;;4.20;0.80;;;18.20;96.70;;;;;;4960121;28;20455;-50
2021/05/14 12:00:46;;;;;;;4.15;0.90;;;17.70;98.30;;;;;;4970478;28;20444;-50
2021/05/14 12:03:19;;;;;;;4.20;0.90;;;17.60;99.90;;;;;;4947548;29;20438;-50
2021/05/14 12:05:47;;;;;;;4.20;0.90;;;17.60;99.90;;;;;;4955503;28;20425;-51
2021/05/14 12:08:25;;;;;;;3.80;0.90;;;17.50;99.90;;;;;;4963075;28;20447;-50
2021/05/14 12:11:10;;;;;;;4.30;1.17;;;17.70;99.90;;;;;;4962683;28;20488;-52
2021/05/14 12:13:41;;;;;;;3.70;0.80;;;18.00;99.90;;;;;;4961951;28;21187;-51
2021/05/14 12:16:11;;;;;;;8.48;1.05;;;18.50;99.90;;;;;;4961356;28;20483;-50
2021/05/14 12:18:43;;;;;;;4.07;1.63;;;18.60;99.90;;;;;;4961404;28;20394;-51
2021/05/14 12:21:14;;;;;;;4.43;0.80;;;18.60;99.90;;;;;;4967633;28;20388;-50
2021/05/14 12:23:40;;;;;;;3.90;0.70;;;18.70;99.90;;;;;;4971021;28;20384;-50
2021/05/14 12:26:07;;;;;;;4.23;0.70;;;18.60;95.20;;;;;;4954548;28;20813;-52
2021/05/14 12:28:41;;;;;;;4.20;0.80;;;18.50;98.10;;;;;;4970123;28;20915;-50
2021/05/14 12:31:13;;;;;;;4.10;0.80;;;18.30;97.80;;;;;;4971624;28;20928;-50
2021/05/14 12:33:54;;;;;;;4.00;0.70;;;18.10;98.00;;;;;;4967707;28;21205;-51
2021/05/14 12:36:25;;;;;;;3.90;0.80;;;18.50;99.90;;;;;;4969348;28;20399;-53
2021/05/14 12:38:52;;;;;;;3.38;0.98;;;18.70;95.70;;;;;;4970795;28;20903;-50
2021/05/14 12:41:31;;;;;;;3.90;0.80;;;18.70;94.60;;;;;;4970960;28;20413;-62
2021/05/14 12:44:09;;;;;;;3.70;0.70;;;18.60;94.50;;;;;;4971922;28;20400;-51
2021/05/14 12:46:36;;;;;;;7.43;1.10;;;18.80;94.20;;;;;;4970428;28;20523;-51
2021/05/14 12:49:08;;;;;;;3.47;0.63;;;19.30;98.70;;;;;;4971461;28;20894;-51
2021/05/14 12:51:34;;;;;;;3.78;0.60;;;19.20;92.10;;;;;;4970175;28;20400;-51
2021/05/14 12:54:00;;;;;;;4.40;0.90;;;19.20;93.30;;;;;;4970787;28;20406;-50
2021/05/14 12:56:26;;;;;;;3.40;0.80;;;19.40;91.50;;;;;;4970326;28;20470;-51
2021/05/14 12:59:02;;;;;;;4.30;0.90;;;19.50;89.10;;;;;;4971466;28;20423;-54